createdAt,value
2022-10-03T00:05:42.244Z,99894.84
2022-10-03T00:12:38.052Z,99899.84
2022-10-03T00:19:04.429Z,99904.66
2022-10-03T00:33:23.773Z,99922.72
2022-10-03T00:39:53.704Z,99927.19
2022-10-03T00:46:40.349Z,99925.63
2022-10-03T00:53:07.049Z,99932.38
2022-10-03T00:59:31.773Z,99927.75
2022-10-03T01:05:39.171Z,99927.00
2022-10-03T01:11:55.852Z,99933.38
2022-10-03T01:18:31.960Z,99935.59
2022-10-03T01:24:53.620Z,99931.03
2022-10-03T01:31:04.802Z,99943.72
2022-10-03T01:37:23.732Z,99948.53
2022-10-03T01:43:38.166Z,99949.72
2022-10-03T01:49:51.432Z,99957.97
2022-10-03T01:56:17.535Z,99964.97
2022-10-03T02:02:35.208Z,99968.69
2022-10-03T02:09:20.214Z,99974.69
2022-10-03T02:16:08.250Z,99973.50
2022-10-03T02:22:46.029Z,99981.19
2022-10-03T02:28:59.647Z,99984.50
2022-10-03T02:35:28.484Z,99993.38
2022-10-03T02:42:25.848Z,99996.94
2022-10-03T02:48:40.482Z,100005.13
2022-10-03T02:55:35.862Z,100008.56
2022-10-03T03:02:48.328Z,100018.94
2022-10-03T03:09:33.505Z,100013.59
2022-10-03T03:16:18.967Z,100018.97
2022-10-03T03:22:57.869Z,100017.31
2022-10-03T03:29:21.329Z,100022.22
2022-10-03T03:36:26.386Z,100020.66
2022-10-03T03:42:41.875Z,100025.56
2022-10-03T03:49:34.961Z,100030.47
2022-10-03T03:55:48.729Z,100037.78
2022-10-03T04:02:27.006Z,100039.16
2022-10-03T04:08:50.462Z,100049.72
2022-10-03T04:15:23.427Z,100051.38
2022-10-03T04:21:56.484Z,100052.22
2022-10-03T04:28:34.412Z,100050.28
2022-10-03T04:34:58.011Z,100053.31
2022-10-03T04:41:21.680Z,100054.72
2022-10-03T04:47:43.783Z,100056.00
2022-10-03T04:53:51.667Z,100049.97
2022-10-03T05:00:27.420Z,100061.28
2022-10-03T05:07:10.264Z,100054.44
2022-10-03T05:13:22.611Z,100063.97
2022-10-03T05:19:49.245Z,100068.50
2022-10-03T05:26:45.070Z,100068.00
2022-10-03T05:32:58.992Z,100077.44
2022-10-03T05:39:33.665Z,100081.88
2022-10-03T05:45:48.956Z,100093.38
2022-10-03T05:52:39.211Z,100097.81
2022-10-03T05:59:13.939Z,100124.06
2022-10-03T06:06:00.230Z,100123.41
2022-10-03T06:12:32.007Z,100132.97
2022-10-03T06:19:21.740Z,100127.13
2022-10-03T06:25:26.528Z,100135.47
2022-10-03T06:32:05.660Z,100132.41
2022-10-03T06:38:53.042Z,100141.78
2022-10-03T06:44:55.788Z,100146.31
2022-10-03T06:51:40.703Z,100141.41
2022-10-03T06:58:07.364Z,100147.41
2022-10-03T07:04:46.041Z,100143.81
2022-10-03T07:10:54.026Z,100153.97
2022-10-03T07:17:24.881Z,100155.16
2022-10-03T07:24:16.140Z,100156.97
2022-10-03T07:30:50.714Z,100170.56
2022-10-03T07:37:48.771Z,100172.50
2022-10-03T07:44:24.167Z,100178.22
2022-10-03T07:50:55.715Z,100185.06
2022-10-03T07:57:29.665Z,100191.75
2022-10-03T08:04:20.254Z,100195.03
2022-10-03T08:11:20.453Z,100198.28
2022-10-03T08:18:02.309Z,100216.59
2022-10-03T08:24:44.821Z,100210.88
2022-10-03T08:31:34.953Z,100218.00
2022-10-03T08:44:53.056Z,100222.88
2022-10-03T08:51:12.420Z,100229.88
2022-10-03T08:57:52.847Z,100229.56
2022-10-03T09:04:51.427Z,100239.72
2022-10-03T09:11:18.860Z,100230.38
2022-10-03T09:17:57.161Z,100225.88
2022-10-03T09:24:49.497Z,100227.13
2022-10-03T09:31:09.858Z,100236.94
2022-10-03T09:37:57.426Z,100240.25
2022-10-03T09:44:56.061Z,100232.56
2022-10-03T09:51:33.491Z,100234.63
2022-10-03T09:58:03.001Z,100230.25
2022-10-03T10:04:54.143Z,100238.97
2022-10-03T10:11:24.976Z,100237.94
2022-10-03T10:18:08.683Z,100236.22
2022-10-03T10:32:09.827Z,100245.88
2022-10-03T10:38:26.545Z,100239.94
2022-10-03T10:45:14.804Z,100232.66
2022-10-03T10:52:00.491Z,100240.44
2022-10-03T10:58:58.182Z,100232.09
2022-10-03T11:05:25.163Z,100219.44
2022-10-03T11:12:04.992Z,100229.03
2022-10-03T11:18:45.257Z,100228.16
2022-10-03T11:25:35.469Z,100225.59
2022-10-03T11:32:18.626Z,100221.13
2022-10-03T11:38:41.061Z,100214.31
2022-10-03T11:45:43.339Z,100220.72
2022-10-03T11:59:43.204Z,100218.81
2022-10-03T12:06:33.249Z,100206.97
2022-10-03T12:12:52.138Z,100216.13
2022-10-03T12:19:23.992Z,100215.16
2022-10-03T12:25:34.832Z,100218.88
2022-10-03T12:32:05.814Z,100209.91
2022-10-03T12:38:52.142Z,100210.22
2022-10-03T12:45:27.209Z,100197.66
2022-10-03T12:52:09.860Z,100189.38
2022-10-03T12:59:13.247Z,100202.66
2022-10-03T13:05:37.843Z,100201.38
2022-10-03T13:12:08.764Z,100194.03
2022-10-03T13:18:32.059Z,100194.75
2022-10-03T13:25:01.074Z,100195.53
2022-10-03T13:31:28.666Z,100196.03
2022-10-03T13:37:57.295Z,100179.91
2022-10-03T13:44:04.341Z,100174.63
2022-10-03T13:50:16.601Z,100180.78
2022-10-03T13:56:45.703Z,100175.75
2022-10-03T14:02:59.907Z,100167.28
2022-10-03T14:09:19.520Z,100169.53
2022-10-03T14:15:39.348Z,100169.69
2022-10-03T14:29:46.979Z,100164.94
2022-10-03T14:36:29.476Z,100160.28
2022-10-03T14:43:01.556Z,100163.63
2022-10-03T14:49:17.151Z,100166.75
2022-10-03T14:55:59.787Z,100163.81
2022-10-03T15:02:35.802Z,100156.94
2022-10-03T15:08:54.872Z,100155.78
2022-10-03T15:15:31.323Z,100147.50
2022-10-03T15:21:34.176Z,100137.47
2022-10-03T15:27:42.041Z,100140.88
2022-10-03T15:33:45.876Z,100143.50
2022-10-03T15:39:48.784Z,100147.41
2022-10-03T15:45:51.239Z,100152.56
2022-10-03T15:52:01.283Z,100150.25
2022-10-03T15:58:23.754Z,100136.53
2022-10-03T16:04:34.753Z,100135.78
2022-10-03T16:10:49.218Z,100139.50
2022-10-03T16:24:01.192Z,100117.13
2022-10-03T16:30:27.261Z,100125.28
2022-10-03T16:42:49.076Z,100122.94
2022-10-03T16:49:14.336Z,100110.84
2022-10-03T16:55:59.873Z,100120.50
2022-10-03T17:02:12.889Z,100126.25
2022-10-03T17:08:40.549Z,100122.16
2022-10-03T17:14:44.613Z,100123.78
2022-10-03T17:21:11.126Z,100120.28
2022-10-03T17:27:37.471Z,100128.47
2022-10-03T17:34:11.749Z,100139.56
2022-10-03T17:40:32.189Z,100134.75
2022-10-03T17:46:40.254Z,100146.00
2022-10-03T17:52:47.647Z,100144.91
2022-10-03T17:58:58.774Z,100143.81
2022-10-03T18:05:18.466Z,100145.53
2022-10-03T18:11:33.569Z,100136.03
2022-10-03T18:18:07.895Z,100140.53
2022-10-03T18:24:54.111Z,100150.88
2022-10-03T18:31:05.350Z,100150.56
2022-10-03T18:37:29.100Z,100144.91
2022-10-03T18:43:45.184Z,100145.47
2022-10-03T18:50:43.706Z,100149.19
2022-10-03T18:57:06.843Z,100136.59
2022-10-03T19:03:16.187Z,100139.72
2022-10-03T19:09:35.291Z,100134.19
2022-10-03T19:15:56.796Z,100132.22
2022-10-03T19:22:06.734Z,100127.41
2022-10-03T19:28:37.835Z,100132.50
2022-10-03T19:34:43.911Z,100125.91
2022-10-03T19:40:55.546Z,100117.75
2022-10-03T19:47:41.422Z,100110.88
2022-10-03T20:00:17.431Z,100122.22
2022-10-03T20:06:28.548Z,100127.50
2022-10-03T20:12:31.446Z,100127.72
2022-10-03T20:18:53.814Z,100126.13
2022-10-03T20:24:56.461Z,100137.84
2022-10-03T20:30:58.536Z,100132.16
2022-10-03T20:37:39.936Z,100142.03
2022-10-03T20:43:53.100Z,100139.34
2022-10-03T20:50:42.900Z,100143.69
2022-10-03T20:57:25.135Z,100136.47
2022-10-03T21:03:45.313Z,100127.22
2022-10-03T21:10:17.775Z,100120.13
2022-10-03T21:16:34.127Z,100138.13
2022-10-03T21:22:37.011Z,100130.53
2022-10-03T21:28:39.288Z,100111.44
2022-10-03T21:35:05.931Z,100128.41
2022-10-03T21:41:22.795Z,100125.66
2022-10-03T21:48:00.933Z,100131.03
2022-10-03T21:54:36.609Z,100108.81
2022-10-03T22:01:20.947Z,100103.69
2022-10-03T22:07:44.297Z,100099.16
2022-10-03T22:14:16.788Z,100102.19
2022-10-03T22:20:29.624Z,100101.56
2022-10-03T22:27:04.259Z,100089.34
2022-10-03T22:33:47.384Z,100093.38
2022-10-03T22:39:50.001Z,100092.88
2022-10-03T22:45:58.348Z,100093.91
2022-10-03T22:52:03.760Z,100096.63
2022-10-03T22:58:08.531Z,100085.25
2022-10-03T23:04:18.871Z,100078.22
2022-10-03T23:10:35.572Z,100080.25
2022-10-03T23:17:12.575Z,100071.00
2022-10-03T23:23:23.993Z,100059.84
2022-10-03T23:29:26.070Z,100069.72
2022-10-03T23:35:30.887Z,100073.06
2022-10-03T23:41:44.596Z,100082.94
2022-10-03T23:48:13.601Z,100083.94
2022-10-03T23:54:16.323Z,100079.16
